Latest Weather Observations for Roseworthy

IDS60901

Issued at 7:01 pm CDT Friday 14 December 2018 (issued every 10 minutes, with the page automatically refreshed every 10 minutes)

About weather observations | Map of Adelaide area stations | Latest observations for Adelaide area | Other Formats
Station Details ID: 023122 Name: ROSEWORTHY AWS Lat: -34.51 Lon: 138.68 Height: 65.0 m
Data from the previous 72 hours. | See also: Recent months at Roseworthy
Date/Time
CDT
Temp
°C
App
Temp
°C
Dew
Point
°C
Rel
Hum
%
Delta-T
°C
Wind Press
QNH
hPa
Press
MSL
hPa
Rain since
9am
mm
Dir  Spd
km/h
Gust
km/h
Spd
kts
Gust
kts
14/07:00pm 18.5 15.4 14.4 77 2.4 S 24 35 13 19 1004.8 1004.6 0.2
14/06:30pm 19.1 15.7 14.8 76 2.5 SSW 26 33 14 18 1004.2 1004.0 0.2
14/06:00pm 19.4 15.2 14.6 74 2.8 SSW 30 41 16 22 1003.7 1003.5 0.2
14/05:30pm 19.9 14.8 14.7 72 3.1 SSW 35 44 19 24 1003.5 1003.3 0.2
14/05:00pm 20.3 15.2 14.9 71 3.2 SSW 35 46 19 25 1003.0 1002.8 0.2
14/04:30pm 21.1 16.1 15.0 68 3.6 SSW 35 48 19 26 1002.8 1002.6 0.2
14/04:00pm 23.0 19.1 13.2 54 5.7 S 26 39 14 21 1002.7 1002.5 0.2
14/03:30pm 23.5 20.0 13.4 53 5.9 S 24 35 13 19 1002.9 1002.7 0.2
14/03:00pm 22.5 18.8 14.9 62 4.5 SSW 28 39 15 21 1003.4 1003.2 0.2
14/02:30pm 21.3 17.8 15.4 69 3.5 SSW 28 37 15 20 1003.3 1003.1 0.2
14/02:00pm 21.3 17.0 16.0 72 3.2 SSW 33 43 18 23 1003.4 1003.2 0.2
14/01:30pm 20.4 15.6 14.7 70 3.4 SW 33 46 18 25 1003.4 1003.2 0.2
14/01:00pm 21.8 17.7 13.7 60 4.7 S 28 39 15 21 1003.3 1003.1 0.2
14/12:30pm 22.4 18.5 14.3 60 4.8 SSW 28 41 15 22 1003.1 1002.9 0.2
14/12:00pm 21.5 16.3 12.9 58 4.9 S 32 44 17 24 1003.3 1003.1 0.2
14/11:30am 19.5 15.0 12.5 64 3.9 S 28 35 15 19 1003.4 1003.2 0.2
14/11:00am 18.9 16.3 13.7 72 3.0 S 20 30 11 16 1003.4 1003.2 0.2
14/10:30am 16.9 14.2 14.7 87 1.3 SE 22 32 12 17 1004.0 1003.8 0.0
14/10:15am 16.9 13.2 15.1 89 1.0 SSE 28 48 15 26 1004.2 1004.0 0.0
14/10:00am 17.9 14.3 15.3 85 1.5 SSW 28 35 15 19 1003.5 1003.3 0.0
14/09:30am 18.3 14.5 15.7 85 1.5 SSW 30 41 16 22 1003.0 1002.8 0.0
14/09:00am 16.6 12.6 15.1 91 0.9 SSW 30 41 16 22 1003.3 1003.1 6.6
14/08:30am 15.8 10.3 14.7 93 0.6 SW 37 48 20 26 1003.2 1003.0 6.6
14/08:05am 15.5 10.8 14.2 92 0.7 SW 32 50 17 27 1003.0 1002.8 6.6
14/08:00am 15.5 10.8 14.4 93 0.6 SW 32 46 17 25 1003.0 1002.8 6.6
14/07:30am 15.1 10.4 14.3 95 0.5 SW 32 46 17 25 1003.3 1003.1 6.6
14/07:05am 14.7 10.7 14.2 97 0.3 SW 28 46 15 25 1003.5 1003.3 6.6
14/07:00am 14.5 9.7 14.0 97 0.3 SW 32 46 17 25 1003.4 1003.2 6.6
14/06:30am 14.2 8.2 13.4 95 0.4 SW 37 50 20 27 1003.5 1003.3 6.6
14/06:19am 14.1 8.9 13.3 95 0.4 SW 33 52 18 28 1003.4 1003.2 6.6
14/06:00am 13.9 8.2 13.1 95 0.4 SW 35 52 19 28 1003.2 1003.0 6.4
14/05:39am 13.6 7.9 13.1 97 0.3 SW 35 54 19 29 1003.5 1003.3 6.4
14/05:30am 13.5 7.9 13.2 98 0.2 SW 35 52 19 28 1003.7 1003.5 6.2
14/05:04am 13.2 7.1 13.0 99 0.1 SW 37 56 20 30 1003.9 1003.7 6.2
14/05:00am 13.2 6.7 13.0 99 0.1 SW 39 56 21 30 1003.8 1003.6 6.0
14/04:30am 12.9 6.7 12.7 99 0.1 SW 37 56 20 30 1004.1 1003.9 5.8
14/04:00am 12.8 6.6 12.5 98 0.2 SW 37 57 20 31 1004.6 1004.4 5.4
14/03:56am 12.8 6.6 12.5 98 0.2 SW 37 57 20 31 1004.6 1004.4 5.4
14/03:30am 12.7 6.7 12.2 97 0.3 SW 35 46 19 25 1004.9 1004.7 5.2
14/03:00am 12.6 7.1 12.3 98 0.2 SW 33 48 18 26 1005.7 1005.5 4.8
14/02:37am 12.4 6.7 11.9 97 0.3 SW 33 54 18 29 1005.9 1005.7 4.6
14/02:30am 12.5 7.1 12.2 98 0.2 SW 32 44 17 24 1006.1 1005.9 4.6
14/02:18am 12.4 7.0 12.1 98 0.2 SW 32 52 17 28 1006.4 1006.2 4.4
14/02:00am 12.2 6.7 11.9 98 0.2 SW 32 48 17 26 1006.7 1006.5 4.4
14/01:54am 12.2 6.4 11.6 96 0.3 SW 33 52 18 28 1006.9 1006.7 4.0
14/01:30am 12.4 5.6 10.5 88 1.0 SW 37 52 20 28 1007.2 1007.0 3.6
14/01:04am 12.5 5.1 9.7 83 1.4 SW 39 59 21 32 1007.1 1006.9 3.6
14/01:00am 12.8 6.1 9.8 82 1.5 SW 35 50 19 27 1007.2 1007.0 3.4
14/12:36am 13.3 5.8 9.5 78 1.9 SW 39 57 21 31 1007.6 1007.4 3.4
14/12:30am 13.1 5.5 9.2 77 2.0 SW 39 56 21 30 1007.5 1007.3 3.4
14/12:05am 13.9 6.0 7.7 66 3.1 SW 39 57 21 31 1008.0 1007.8 3.4
14/12:00am 13.8 6.3 7.8 67 3.0 SW 37 50 20 27 1008.1 1007.9 3.4
 
Date/Time
CDT
Temp
°C
App
Temp
°C
Dew
Point
°C
Rel
Hum
%
Delta-T
°C
Wind Press
QNH
hPa
Press
MSL
hPa
Rain since
9am
mm
Dir  Spd
km/h
Gust
km/h
Spd
kts
Gust
kts
13/11:51pm 13.4 7.4 8.7 73 2.4 SW 30 48 16 26 1008.2 1008.0 3.4
13/11:30pm 12.7 5.8 8.8 77 2.0 SW 35 48 19 26 1008.6 1008.4 3.4
13/11:20pm 13.7 7.9 7.9 68 2.9 SW 28 46 15 25 1008.8 1008.6 3.4
13/11:00pm 13.1 7.9 8.8 75 2.2 SSW 26 37 14 20 1009.0 1008.8 3.4
13/10:30pm 12.6 6.7 8.9 78 1.9 SSW 30 41 16 22 1009.4 1009.2 3.4
13/10:11pm 12.8 5.5 8.9 77 2.0 SSW 37 61 20 33 1009.5 1009.3 3.4
13/10:00pm 13.6 6.0 7.6 67 3.0 SW 37 50 20 27 1009.6 1009.4 3.4
13/09:30pm 13.2 5.6 7.4 68 2.8 SSW 37 52 20 28 1009.8 1009.6 3.4
13/09:00pm 13.3 6.2 6.6 64 3.2 SW 33 57 18 31 1009.7 1009.5 3.4
13/08:44pm 13.0 5.7 7.2 68 2.8 SW 35 54 19 29 1009.7 1009.5 3.4
13/08:30pm 12.9 6.2 7.4 69 2.7 SW 32 46 17 25 1009.7 1009.5 3.4
13/08:00pm 12.3 4.5 8.4 77 1.9 SW 39 52 21 28 1009.9 1009.7 3.4
13/07:33pm 13.6 6.6 6.7 63 3.3 SW 33 52 18 28 1009.7 1009.5 3.0
13/07:30pm 13.7 6.3 6.6 62 3.4 SW 35 52 19 28 1009.7 1009.5 3.0
13/07:02pm 13.5 5.3 6.6 63 3.3 SSW 39 57 21 31 1009.4 1009.2 3.0
13/07:00pm 13.7 5.1 6.6 62 3.4 SSW 41 57 22 31 1009.4 1009.2 3.0
13/06:30pm 14.5 5.1 7.1 61 3.6 SSW 46 65 25 35 1008.8 1008.6 3.0
13/06:00pm 15.3 5.2 5.5 52 4.7 SW 48 67 26 36 1008.6 1008.4 3.0
13/05:36pm 15.7 6.0 5.6 51 4.8 SW 46 69 25 37 1008.7 1008.5 3.0
13/05:30pm 15.3 5.7 6.1 54 4.5 SW 46 63 25 34 1008.6 1008.4 3.0
13/05:03pm 14.6 5.4 5.4 54 4.4 SW 43 61 23 33 1008.5 1008.3 3.0
13/05:00pm 15.0 6.1 6.8 58 4.0 SW 43 57 23 31 1008.6 1008.4 3.0
13/04:33pm 15.0 7.4 7.5 61 3.7 SSW 37 56 20 30 1008.7 1008.5 3.0
13/04:30pm 14.7 6.8 8.0 64 3.4 SSW 39 56 21 30 1008.8 1008.6 3.0
13/04:00pm 15.6 7.4 8.1 61 3.8 SSW 41 59 22 32 1008.7 1008.5 3.0
13/03:30pm 14.7 4.7 7.7 63 3.5 SW 50 70 27 38 1008.5 1008.3 3.0
13/03:01pm 14.2 5.1 8.6 69 2.8 SSW 46 65 25 35 1008.6 1008.4 3.0
13/03:00pm 14.3 4.9 8.9 70 2.8 SSW 48 65 26 35 1008.5 1008.3 3.0
13/02:54pm 14.0 5.2 8.0 67 3.0 SSW 44 65 24 35 1008.5 1008.3 3.0
13/02:44pm 14.2 7.6 8.4 68 2.9 SSW 33 54 18 29 1008.4 1008.2 3.0
13/02:41pm 13.5 8.3 11.6 88 1.0 S 30 52 16 28 1008.4 1008.2 3.0
13/02:30pm 11.2 3.2 10.3 94 0.5 SSW 43 65 23 35 1008.7 1008.5 2.6
13/02:29pm 11.2 2.9 10.1 93 0.6 SSW 44 65 24 35 1008.7 1008.5 2.6
13/02:27pm 10.9 2.1 9.7 92 0.6 SSW 46 65 25 35 1008.8 1008.6 2.4
13/02:26pm 10.7 1.4 9.3 91 0.7 SSW 48 65 26 35 1008.8 1008.6 2.0
13/02:15pm 16.0 7.8 6.4 53 4.7 SW 39 59 21 32 1008.3 1008.1 1.4
13/02:00pm 15.7 6.5 6.2 53 4.6 SSW 44 59 24 32 1008.6 1008.4 1.4
13/01:35pm 14.8 4.4 5.9 55 4.3 SW 50 69 27 37 1008.7 1008.5 1.4
13/01:30pm 15.3 4.5 5.8 53 4.6 SW 52 69 28 37 1008.5 1008.3 1.4
13/01:01pm 13.4 4.8 8.9 74 2.3 SW 44 63 24 34 1008.5 1008.3 1.4
13/01:00pm 13.5 4.5 9.0 74 2.3 SW 46 63 25 34 1008.5 1008.3 1.4
13/12:30pm 14.8 5.3 8.5 66 3.2 SW 48 69 26 37 1008.2 1008.0 1.4
13/12:00pm 15.4 6.3 6.9 57 4.2 SSW 44 63 24 34 1008.0 1007.8 1.4
13/11:31am 14.7 5.4 7.7 63 3.5 SW 46 65 25 35 1008.2 1008.0 1.4
13/11:30am 14.6 4.9 7.6 63 3.5 SW 48 65 26 35 1008.2 1008.0 1.4
13/11:14am 14.6 5.7 6.7 59 3.8 SW 43 61 23 33 1007.8 1007.6 1.4
13/11:00am 15.4 6.8 8.9 65 3.3 SW 44 59 24 32 1007.7 1007.5 1.4
13/10:31am 16.3 8.4 7.8 57 4.3 SW 39 61 21 33 1007.5 1007.3 0.0
13/10:30am 16.0 7.9 7.0 55 4.5 SW 39 56 21 30 1007.6 1007.4 0.0
13/10:00am 15.4 7.3 6.9 57 4.2 SW 39 57 21 31 1007.7 1007.5 0.0
13/09:30am 13.5 6.3 9.2 75 2.2 SSW 37 57 20 31 1007.7 1007.5 0.0
13/09:11am 15.1 6.9 8.1 63 3.5 SW 41 59 22 32 1007.5 1007.3 0.0
13/09:00am 14.2 5.5 7.5 64 3.3 SW 43 54 23 29 1007.5 1007.3 8.6
13/08:30am 14.9 7.0 7.9 63 3.5 SW 39 57 21 31 1007.3 1007.1 8.6
13/08:14am 14.8 6.8 9.0 68 3.0 SW 41 61 22 33 1007.0 1006.8 8.6
13/08:00am 15.3 7.3 7.6 60 3.8 SW 39 54 21 29 1006.9 1006.7 8.6
13/07:30am 14.4 7.2 9.0 70 2.8 SW 37 52 20 28 1007.0 1006.8 8.6
13/07:16am 14.3 7.5 9.1 71 2.7 SW 35 59 19 32 1006.9 1006.7 8.6
13/07:00am 14.1 7.9 9.5 74 2.4 SW 32 44 17 24 1006.9 1006.7 8.4
13/06:49am 13.9 8.0 10.5 80 1.8 SSW 32 50 17 27 1006.8 1006.6 8.4
13/06:30am 14.0 7.6 10.6 80 1.8 SW 35 46 19 25 1006.3 1006.1 8.4
13/06:00am 13.5 6.2 11.7 89 1.0 SW 41 61 22 33 1005.6 1005.4 8.4
13/05:30am 14.2 8.1 13.1 93 0.6 SW 37 57 20 31 1005.1 1004.9 7.8
13/05:00am 14.5 9.2 14.2 98 0.2 SW 35 56 19 30 1004.7 1004.5 7.4
13/04:33am 15.7 11.7 14.1 90 0.9 SW 28 46 15 25 1004.4 1004.2 6.4
13/04:30am 15.8 12.1 13.8 88 1.1 SW 26 41 14 22 1004.3 1004.1 6.4
13/04:00am 16.1 12.2 13.4 84 1.5 WSW 26 39 14 21 1004.4 1004.2 6.4
13/03:30am 16.1 12.3 13.6 85 1.4 WSW 26 37 14 20 1004.5 1004.3 6.4
13/03:00am 16.2 13.1 14.4 89 1.0 SW 24 35 13 19 1004.5 1004.3 6.4
13/02:30am 16.3 15.2 16.3 100 0.0 SW 17 24 9 13 1004.5 1004.3 6.4
13/02:00am 16.5 14.3 15.9 96 0.4 SW 22 30 12 16 1004.8 1004.6 5.2
13/01:30am 17.7 15.6 14.6 82 1.8 SW 19 30 10 16 1004.8 1004.6 5.0
13/01:00am 17.8 15.3 15.2 85 1.5 SW 22 32 12 17 1005.0 1004.8 5.0
13/12:30am 17.9 15.0 15.0 83 1.7 SW 24 39 13 21 1004.7 1004.5 5.0
13/12:00am 17.8 14.0 15.8 88 1.2 SSW 30 46 16 25 1004.4 1004.2 5.0
 
Date/Time
CDT
Temp
°C
App
Temp
°C
Dew
Point
°C
Rel
Hum
%
Delta-T
°C
Wind Press
QNH
hPa
Press
MSL
hPa
Rain since
9am
mm
Dir  Spd
km/h
Gust
km/h
Spd
kts
Gust
kts
12/11:55pm 17.9 14.7 16.4 91 0.9 SSW 28 46 15 25 1004.3 1004.1 5.0
12/11:30pm 19.1 17.0 16.3 84 1.7 SW 22 35 12 19 1004.1 1003.9 2.0
12/11:00pm 19.8 16.4 15.7 77 2.4 SW 28 39 15 21 1003.8 1003.6 2.0
12/10:37pm 21.3 18.1 15.4 69 3.5 SW 26 41 14 22 1003.4 1003.2 2.0
12/10:30pm 21.7 21.2 15.8 69 3.6 SW 13 22 7 12 1003.4 1003.2 2.0
12/10:00pm 21.3 20.8 15.8 71 3.3 SW 13 19 7 10 1003.0 1002.8 2.0
12/09:30pm 21.8 19.3 16.1 70 3.5 WSW 24 33 13 18 1002.9 1002.7 2.0
12/09:00pm 23.8 21.5 15.8 61 4.9 W 22 33 12 18 1002.1 1001.9 2.0
12/08:30pm 23.8 23.6 16.8 65 4.3 NNW 13 15 7 8 1001.1 1000.8 2.0
12/08:00pm 25.7 23.9 16.0 55 5.9 NNW 20 26 11 14 1000.8 1000.5 2.0
12/07:30pm 27.1 23.4 16.1 51 6.8 NNW 30 39 16 21 1000.6 1000.3 2.0
12/07:00pm 29.2 24.7 15.0 42 8.7 NNW 32 46 17 25 1000.2 999.9 2.0
12/06:58pm 29.8 25.4 14.0 38 9.5 NNW 30 46 16 25 1000.2 999.9 2.0
12/06:30pm 30.1 27.8 14.6 39 9.5 N 20 24 11 13 1000.5 1000.2 1.8
12/06:00pm 29.1 27.0 15.2 42 8.6 N 20 24 11 13 1000.7 1000.4 1.8
12/05:30pm 28.6 26.0 15.8 45 7.9 N 24 32 13 17 1001.0 1000.7 1.8
12/05:00pm 27.6 26.0 16.6 51 6.8 NNE 20 26 11 14 1001.3 1001.0 1.8
12/04:30pm 25.2 23.9 18.2 65 4.4 NNE 22 32 12 17 1001.9 1001.7 1.8
12/04:00pm 22.5 21.3 19.3 82 2.0 N 24 37 13 20 1002.9 1002.7 1.8
12/03:30pm 23.8 20.0 17.3 67 4.1 NNW 33 48 18 26 1002.8 1002.6 0.0
12/03:25pm 24.3 19.3 17.1 64 4.5 NNW 39 48 21 26 1002.8 1002.6 0.0
12/03:00pm 29.3 21.4 12.7 36 9.8 NNW 46 59 25 32 1002.8 1002.6 0.0
12/02:30pm 30.8 23.9 11.7 31 11.2 NW 39 59 21 32 1002.4 1002.2 0.0
12/02:25pm 31.7 27.2 11.5 29 11.8 NW 26 50 14 27 1002.5 1002.3 0.0
12/02:00pm 33.5 28.9 8.2 21 14.2 W 22 35 12 19 1002.4 1002.2 0.0
12/01:30pm 33.4 29.2 8.1 21 14.2 NW 20 30 11 16 1002.8 1002.6 0.0
12/01:00pm 35.4 31.4 9.0 20 15.1 W 20 35 11 19 1003.0 1002.8 0.0
12/12:30pm 33.7 29.7 9.0 22 14.1 NW 20 30 11 16 1003.4 1003.2 0.0
12/12:00pm 33.8 31.1 10.4 24 13.6 W 15 24 8 13 1003.7 1003.5 0.0
12/11:30am 32.5 30.8 11.1 27 12.5 WNW 11 17 6 9 1004.0 1003.8 0.0
12/11:00am 31.5 30.2 11.3 29 11.8 NW 9 17 5 9 1004.3 1004.1 0.0
12/10:30am 30.6 28.6 11.5 30 11.2 NNW 13 17 7 9 1004.7 1004.5 0.0
12/10:00am 30.3 28.4 11.8 32 10.8 NW 13 20 7 11 1005.0 1004.8 0.0
12/09:30am 30.5 28.6 11.9 31 10.9 NNW 13 20 7 11 1005.3 1005.1 0.0
12/09:00am 29.0 27.3 11.1 33 10.3 NNE 11 15 6 8 1005.3 1005.1 0.0
12/08:30am 28.4 27.0 11.0 34 10.0 N 9 13 5 7 1005.5 1005.3 0.0
12/08:00am 27.3 26.0 10.1 34 9.6 N 7 11 4 6 1005.4 1005.2 0.0
12/07:30am 24.7 23.0 9.8 39 8.2 NE 9 11 5 6 1005.4 1005.2 0.0
12/07:00am 22.8 21.1 9.9 44 7.0 ENE 9 9 5 5 1005.3 1005.1 0.0
12/06:30am 20.9 20.9 9.8 49 6.0 CALM 0 0 0 0 1005.6 1005.4 0.0
12/06:00am 20.5 19.9 9.1 48 6.1 NNE 2 6 1 3 1005.1 1004.9 0.0
12/05:30am 20.6 19.0 8.9 47 6.2 NNW 7 11 4 6 1005.0 1004.8 0.0
12/05:00am 21.9 19.2 8.8 43 7.0 NE 13 17 7 9 1004.9 1004.7 0.0
12/04:30am 22.7 19.2 8.8 41 7.5 ENE 17 20 9 11 1004.8 1004.6 0.0
12/04:00am 21.7 19.2 8.2 42 7.1 E 11 17 6 9 1005.0 1004.8 0.0
12/03:30am 22.5 18.6 8.6 41 7.4 ENE 19 24 10 13 1005.1 1004.9 0.0
12/03:00am 20.3 18.7 8.0 45 6.4 ENE 6 9 3 5 1005.7 1005.5 0.0
12/02:30am 21.0 20.6 8.3 44 6.7 CALM 0 0 0 0 1006.0 1005.8 0.0
12/02:00am 21.0 19.3 8.3 44 6.7 NE 7 7 4 4 1006.1 1005.9 0.0
12/01:30am 22.7 22.3 8.4 40 7.6 CALM 0 0 0 0 1006.4 1006.2 0.0
12/01:00am 22.9 20.1 8.6 40 7.6 NNE 13 13 7 7 1006.4 1006.2 0.0
12/12:30am 23.5 22.0 8.4 38 8.1 N 6 9 3 5 1006.9 1006.7 0.0
12/12:00am 25.0 23.5 8.5 35 8.9 NW 6 7 3 4 1007.5 1007.3 0.0
 
Date/Time
CDT
Temp
°C
App
Temp
°C
Dew
Point
°C
Rel
Hum
%
Delta-T
°C
Wind Press
QNH
hPa
Press
MSL
hPa
Rain since
9am
mm
Dir  Spd
km/h
Gust
km/h
Spd
kts
Gust
kts
11/11:30pm 24.8 22.7 8.3 35 8.9 ENE 9 15 5 8 1007.8 1007.6 0.0
11/11:00pm 25.3 22.4 8.3 34 9.1 E 13 17 7 9 1008.2 1008.0 0.0
11/10:30pm 26.4 23.2 8.4 32 9.8 ESE 15 20 8 11 1008.2 1008.0 0.0
11/10:00pm 26.9 23.4 8.8 32 9.9 ESE 17 24 9 13 1008.2 1008.0 0.0
11/09:30pm 27.2 23.9 9.5 33 9.8 SE 17 24 9 13 1008.3 1008.1 0.0
11/09:00pm 25.7 23.4 7.3 31 9.8 ENE 9 11 5 6 1008.3 1008.1 0.0
11/08:30pm 27.3 24.6 7.2 28 10.7 E 11 13 6 7 1008.2 1008.0 0.0
11/08:00pm 29.5 26.4 7.4 25 12.0 ENE 13 15 7 8 1008.2 1008.0 0.0
11/07:30pm 31.2 27.8 7.6 23 13.0 ENE 15 20 8 11 1008.2 1008.0 0.0

Latest Capital City Observations: Canberra | Sydney | Melbourne | Brisbane | Adelaide | Perth | Hobart | Darwin

Other Formats:

Comma delimited format used in spreadsheet applications
http://www.bom.gov.au/fwo/IDS60901/IDS60901.95671.axf

JavaScript Object Notation format (JSON) in row-major order
http://www.bom.gov.au/fwo/IDS60901/IDS60901.95671.json